<?xml version="1.0" encoding="utf-8"?>
<gpx xmlns:xsi="http://www.w3.org/2001/XMLSchema-instance" xmlns:xsd="http://www.w3.org/2001/XMLSchema" version="1.1" creator="Shapelink.com" xmlns="http://www.topografix.com/GPX/1/1" xmlns:gpxtpx="http://www.garmin.com/xmlschemas/TrackPointExtension/v1">
  <metadata>
    <name>Gåing 4.11 km, 2012-02-22</name>
    <desc></desc>
    <author><name>Mikael Blom</name></author> 
    <time>2012-02-22T16:27:45Z</time>
  </metadata>
  <trk>
    <name>Gåing 4.11 km, 2012-02-22</name>
    <trkseg>
      <trkpt lat="59.9789602" lon="17.7393433">
        <ele>38.1094</ele>
        <time>2012-02-22T16:27:45Z</time>
      </trkpt>
      <trkpt lat="59.9788915" lon="17.7393025">
        <ele>36.1868</ele>
        <time>2012-02-22T16:27:52Z</time>
      </trkpt>
      <trkpt lat="59.9787805" lon="17.7392922">
        <ele>36.1868</ele>
        <time>2012-02-22T16:27:59Z</time>
      </trkpt>
      <trkpt lat="59.9787647" lon="17.7392923">
        <ele>36.1868</ele>
        <time>2012-02-22T16:28:00Z</time>
      </trkpt>
      <trkpt lat="59.9786879" lon="17.7392828">
        <ele>36.6675</ele>
        <time>2012-02-22T16:28:05Z</time>
      </trkpt>
      <trkpt lat="59.9786228" lon="17.7392993">
        <ele>37.1481</ele>
        <time>2012-02-22T16:28:09Z</time>
      </trkpt>
      <trkpt lat="59.9785104" lon="17.739316">
        <ele>36.6675</ele>
        <time>2012-02-22T16:28:18Z</time>
      </trkpt>
      <trkpt lat="59.9784461" lon="17.7393454">
        <ele>35.7061</ele>
        <time>2012-02-22T16:28:24Z</time>
      </trkpt>
      <trkpt lat="59.9783776" lon="17.7393081">
        <ele>34.7449</ele>
        <time>2012-02-22T16:28:31Z</time>
      </trkpt>
      <trkpt lat="59.9782968" lon="17.7393018">
        <ele>35.7061</ele>
        <time>2012-02-22T16:28:38Z</time>
      </trkpt>
      <trkpt lat="59.9782471" lon="17.7392669">
        <ele>37.6287</ele>
        <time>2012-02-22T16:28:42Z</time>
      </trkpt>
      <trkpt lat="59.9781813" lon="17.7392387">
        <ele>38.5901</ele>
        <time>2012-02-22T16:28:48Z</time>
      </trkpt>
      <trkpt lat="59.9781053" lon="17.7392357">
        <ele>38.1094</ele>
        <time>2012-02-22T16:28:55Z</time>
      </trkpt>
      <trkpt lat="59.9780678" lon="17.7392003">
        <ele>38.1094</ele>
        <time>2012-02-22T16:28:58Z</time>
      </trkpt>
      <trkpt lat="59.9780275" lon="17.7391892">
        <ele>37.1481</ele>
        <time>2012-02-22T16:29:01Z</time>
      </trkpt>
      <trkpt lat="59.977938" lon="17.7391726">
        <ele>38.1094</ele>
        <time>2012-02-22T16:29:07Z</time>
      </trkpt>
      <trkpt lat="59.9778068" lon="17.7391222">
        <ele>38.1094</ele>
        <time>2012-02-22T16:29:16Z</time>
      </trkpt>
      <trkpt lat="59.9776877" lon="17.7390922">
        <ele>36.6675</ele>
        <time>2012-02-22T16:29:24Z</time>
      </trkpt>
      <trkpt lat="59.9775959" lon="17.7390886">
        <ele>36.1868</ele>
        <time>2012-02-22T16:29:30Z</time>
      </trkpt>
      <trkpt lat="59.9775321" lon="17.7391399">
        <ele>35.7061</ele>
        <time>2012-02-22T16:29:34Z</time>
      </trkpt>
      <trkpt lat="59.9774406" lon="17.7391532">
        <ele>34.7449</ele>
        <time>2012-02-22T16:29:41Z</time>
      </trkpt>
      <trkpt lat="59.9773668" lon="17.739201">
        <ele>33.3029</ele>
        <time>2012-02-22T16:29:46Z</time>
      </trkpt>
      <trkpt lat="59.9772934" lon="17.7392268">
        <ele>32.8223</ele>
        <time>2012-02-22T16:29:51Z</time>
      </trkpt>
      <trkpt lat="59.9772302" lon="17.7392854">
        <ele>32.8223</ele>
        <time>2012-02-22T16:29:55Z</time>
      </trkpt>
      <trkpt lat="59.9771589" lon="17.7393093">
        <ele>31.8607</ele>
        <time>2012-02-22T16:30:00Z</time>
      </trkpt>
      <trkpt lat="59.9770619" lon="17.739375">
        <ele>32.3416</ele>
        <time>2012-02-22T16:30:06Z</time>
      </trkpt>
      <trkpt lat="59.9769806" lon="17.7393992">
        <ele>33.7834</ele>
        <time>2012-02-22T16:30:12Z</time>
      </trkpt>
      <trkpt lat="59.9769211" lon="17.7394287">
        <ele>32.8223</ele>
        <time>2012-02-22T16:30:16Z</time>
      </trkpt>
      <trkpt lat="59.9769097" lon="17.7394244">
        <ele>32.8223</ele>
        <time>2012-02-22T16:30:17Z</time>
      </trkpt>
      <trkpt lat="59.9768791" lon="17.739449">
        <ele>32.3416</ele>
        <time>2012-02-22T16:30:19Z</time>
      </trkpt>
      <trkpt lat="59.9768222" lon="17.7394652">
        <ele>30.8995</ele>
        <time>2012-02-22T16:30:23Z</time>
      </trkpt>
      <trkpt lat="59.9767278" lon="17.7395267">
        <ele>30.4188</ele>
        <time>2012-02-22T16:30:29Z</time>
      </trkpt>
      <trkpt lat="59.9766163" lon="17.7396262">
        <ele>29.9381</ele>
        <time>2012-02-22T16:30:36Z</time>
      </trkpt>
      <trkpt lat="59.9765517" lon="17.7396779">
        <ele>30.8995</ele>
        <time>2012-02-22T16:30:41Z</time>
      </trkpt>
      <trkpt lat="59.9764636" lon="17.739777">
        <ele>29.9381</ele>
        <time>2012-02-22T16:30:48Z</time>
      </trkpt>
      <trkpt lat="59.9763943" lon="17.7398962">
        <ele>28.9769</ele>
        <time>2012-02-22T16:30:55Z</time>
      </trkpt>
      <trkpt lat="59.9763579" lon="17.7399728">
        <ele>28.9769</ele>
        <time>2012-02-22T16:30:59Z</time>
      </trkpt>
      <trkpt lat="59.9763279" lon="17.7400729">
        <ele>28.0155</ele>
        <time>2012-02-22T16:31:04Z</time>
      </trkpt>
      <trkpt lat="59.9763042" lon="17.7402338">
        <ele>27.5349</ele>
        <time>2012-02-22T16:31:11Z</time>
      </trkpt>
      <trkpt lat="59.9762438" lon="17.7404514">
        <ele>29.4575</ele>
        <time>2012-02-22T16:31:19Z</time>
      </trkpt>
      <trkpt lat="59.9761797" lon="17.7405995">
        <ele>30.4188</ele>
        <time>2012-02-22T16:31:26Z</time>
      </trkpt>
      <trkpt lat="59.9760975" lon="17.7408301">
        <ele>30.4188</ele>
        <time>2012-02-22T16:31:36Z</time>
      </trkpt>
      <trkpt lat="59.9760222" lon="17.7410684">
        <ele>28.9769</ele>
        <time>2012-02-22T16:31:46Z</time>
      </trkpt>
      <trkpt lat="59.9759749" lon="17.7412595">
        <ele>28.4962</ele>
        <time>2012-02-22T16:31:53Z</time>
      </trkpt>
      <trkpt lat="59.9759415" lon="17.7414228">
        <ele>28.0155</ele>
        <time>2012-02-22T16:31:59Z</time>
      </trkpt>
      <trkpt lat="59.9759036" lon="17.7415795">
        <ele>28.9769</ele>
        <time>2012-02-22T16:32:05Z</time>
      </trkpt>
      <trkpt lat="59.9758307" lon="17.7418382">
        <ele>30.8995</ele>
        <time>2012-02-22T16:32:13Z</time>
      </trkpt>
      <trkpt lat="59.9758104" lon="17.7419512">
        <ele>30.8995</ele>
        <time>2012-02-22T16:32:17Z</time>
      </trkpt>
      <trkpt lat="59.9757791" lon="17.7421066">
        <ele>32.3416</ele>
        <time>2012-02-22T16:32:22Z</time>
      </trkpt>
      <trkpt lat="59.9757626" lon="17.7421696">
        <ele>32.8223</ele>
        <time>2012-02-22T16:32:24Z</time>
      </trkpt>
      <trkpt lat="59.9757162" lon="17.7423498">
        <ele>34.2642</ele>
        <time>2012-02-22T16:32:30Z</time>
      </trkpt>
      <trkpt lat="59.9756907" lon="17.7424494">
        <ele>33.7834</ele>
        <time>2012-02-22T16:32:34Z</time>
      </trkpt>
      <trkpt lat="59.9756405" lon="17.7425984">
        <ele>32.8223</ele>
        <time>2012-02-22T16:32:41Z</time>
      </trkpt>
      <trkpt lat="59.9756094" lon="17.7426994">
        <ele>31.3801</ele>
        <time>2012-02-22T16:32:46Z</time>
      </trkpt>
      <trkpt lat="59.9755636" lon="17.7428384">
        <ele>30.8995</ele>
        <time>2012-02-22T16:32:52Z</time>
      </trkpt>
      <trkpt lat="59.9755287" lon="17.7430228">
        <ele>31.3801</ele>
        <time>2012-02-22T16:32:59Z</time>
      </trkpt>
      <trkpt lat="59.9754927" lon="17.7431684">
        <ele>31.8607</ele>
        <time>2012-02-22T16:33:04Z</time>
      </trkpt>
      <trkpt lat="59.9754403" lon="17.7433531">
        <ele>33.3029</ele>
        <time>2012-02-22T16:33:11Z</time>
      </trkpt>
      <trkpt lat="59.9754175" lon="17.7434567">
        <ele>32.8223</ele>
        <time>2012-02-22T16:33:15Z</time>
      </trkpt>
      <trkpt lat="59.9753883" lon="17.7436754">
        <ele>34.2642</ele>
        <time>2012-02-22T16:33:23Z</time>
      </trkpt>
      <trkpt lat="59.97535" lon="17.7438836">
        <ele>34.7449</ele>
        <time>2012-02-22T16:33:30Z</time>
      </trkpt>
      <trkpt lat="59.9753113" lon="17.7440936">
        <ele>34.2642</ele>
        <time>2012-02-22T16:33:37Z</time>
      </trkpt>
      <trkpt lat="59.9752758" lon="17.7443022">
        <ele>34.7449</ele>
        <time>2012-02-22T16:33:44Z</time>
      </trkpt>
      <trkpt lat="59.9752585" lon="17.7444102">
        <ele>34.7449</ele>
        <time>2012-02-22T16:33:48Z</time>
      </trkpt>
      <trkpt lat="59.9752157" lon="17.7445785">
        <ele>34.2642</ele>
        <time>2012-02-22T16:33:55Z</time>
      </trkpt>
      <trkpt lat="59.9751437" lon="17.7448285">
        <ele>35.2255</ele>
        <time>2012-02-22T16:34:04Z</time>
      </trkpt>
      <trkpt lat="59.9750972" lon="17.7449815">
        <ele>35.2255</ele>
        <time>2012-02-22T16:34:10Z</time>
      </trkpt>
      <trkpt lat="59.9750297" lon="17.7451636">
        <ele>35.2255</ele>
        <time>2012-02-22T16:34:17Z</time>
      </trkpt>
      <trkpt lat="59.974946" lon="17.7453716">
        <ele>34.2642</ele>
        <time>2012-02-22T16:34:26Z</time>
      </trkpt>
      <trkpt lat="59.9748426" lon="17.7456177">
        <ele>34.7449</ele>
        <time>2012-02-22T16:34:36Z</time>
      </trkpt>
      <trkpt lat="59.9747837" lon="17.7457502">
        <ele>35.2255</ele>
        <time>2012-02-22T16:34:42Z</time>
      </trkpt>
      <trkpt lat="59.9747261" lon="17.7458761">
        <ele>35.2255</ele>
        <time>2012-02-22T16:34:48Z</time>
      </trkpt>
      <trkpt lat="59.9746362" lon="17.7460375">
        <ele>33.3029</ele>
        <time>2012-02-22T16:34:57Z</time>
      </trkpt>
      <trkpt lat="59.974551" lon="17.7461687">
        <ele>33.7834</ele>
        <time>2012-02-22T16:35:04Z</time>
      </trkpt>
      <trkpt lat="59.9744922" lon="17.7462958">
        <ele>34.2642</ele>
        <time>2012-02-22T16:35:10Z</time>
      </trkpt>
      <trkpt lat="59.9744309" lon="17.746395">
        <ele>33.3029</ele>
        <time>2012-02-22T16:35:16Z</time>
      </trkpt>
      <trkpt lat="59.9743411" lon="17.7464999">
        <ele>31.8607</ele>
        <time>2012-02-22T16:35:24Z</time>
      </trkpt>
      <trkpt lat="59.9742952" lon="17.7465574">
        <ele>31.3801</ele>
        <time>2012-02-22T16:35:32Z</time>
      </trkpt>
      <trkpt lat="59.9743007" lon="17.7465288">
        <ele>31.8607</ele>
        <time>2012-02-22T16:35:45Z</time>
      </trkpt>
      <trkpt lat="59.9743055" lon="17.7465117">
        <ele>32.3416</ele>
        <time>2012-02-22T16:35:55Z</time>
      </trkpt>
      <trkpt lat="59.9742715" lon="17.746484">
        <ele>40.9934</ele>
        <time>2012-02-22T16:50:54Z</time>
      </trkpt>
      <trkpt lat="59.9742116" lon="17.7465654">
        <ele>39.0707</ele>
        <time>2012-02-22T16:50:59Z</time>
      </trkpt>
      <trkpt lat="59.9741362" lon="17.7467073">
        <ele>38.1094</ele>
        <time>2012-02-22T16:51:04Z</time>
      </trkpt>
      <trkpt lat="59.9740792" lon="17.7467863">
        <ele>34.7449</ele>
        <time>2012-02-22T16:51:09Z</time>
      </trkpt>
      <trkpt lat="59.9739864" lon="17.746937">
        <ele>32.3416</ele>
        <time>2012-02-22T16:51:16Z</time>
      </trkpt>
      <trkpt lat="59.9739293" lon="17.7470256">
        <ele>29.9381</ele>
        <time>2012-02-22T16:51:21Z</time>
      </trkpt>
      <trkpt lat="59.9738651" lon="17.7471219">
        <ele>29.9381</ele>
        <time>2012-02-22T16:51:26Z</time>
      </trkpt>
      <trkpt lat="59.9738113" lon="17.7471896">
        <ele>29.4575</ele>
        <time>2012-02-22T16:51:30Z</time>
      </trkpt>
      <trkpt lat="59.9737773" lon="17.7472453">
        <ele>28.4962</ele>
        <time>2012-02-22T16:51:34Z</time>
      </trkpt>
      <trkpt lat="59.9737326" lon="17.7473068">
        <ele>29.4575</ele>
        <time>2012-02-22T16:51:38Z</time>
      </trkpt>
      <trkpt lat="59.9737218" lon="17.7473024">
        <ele>28.9769</ele>
        <time>2012-02-22T16:51:39Z</time>
      </trkpt>
      <trkpt lat="59.9736517" lon="17.7473701">
        <ele>29.9381</ele>
        <time>2012-02-22T16:51:44Z</time>
      </trkpt>
      <trkpt lat="59.9735553" lon="17.7474162">
        <ele>33.7834</ele>
        <time>2012-02-22T16:51:49Z</time>
      </trkpt>
      <trkpt lat="59.9734014" lon="17.7475219">
        <ele>42.4354</ele>
        <time>2012-02-22T16:51:56Z</time>
      </trkpt>
      <trkpt lat="59.9733105" lon="17.7476332">
        <ele>47.2418</ele>
        <time>2012-02-22T16:52:01Z</time>
      </trkpt>
      <trkpt lat="59.9732122" lon="17.7477368">
        <ele>46.7612</ele>
        <time>2012-02-22T16:52:07Z</time>
      </trkpt>
      <trkpt lat="59.9731544" lon="17.7478078">
        <ele>44.358</ele>
        <time>2012-02-22T16:52:12Z</time>
      </trkpt>
      <trkpt lat="59.9730832" lon="17.7478694">
        <ele>43.8773</ele>
        <time>2012-02-22T16:52:16Z</time>
      </trkpt>
      <trkpt lat="59.9730136" lon="17.7479717">
        <ele>43.8773</ele>
        <time>2012-02-22T16:52:21Z</time>
      </trkpt>
      <trkpt lat="59.9730062" lon="17.7480056">
        <ele>38.5901</ele>
        <time>2012-02-22T16:52:28Z</time>
      </trkpt>
      <trkpt lat="59.9729774" lon="17.7480264">
        <ele>34.7449</ele>
        <time>2012-02-22T16:52:34Z</time>
      </trkpt>
      <trkpt lat="59.9729508" lon="17.7480486">
        <ele>32.8223</ele>
        <time>2012-02-22T16:52:37Z</time>
      </trkpt>
      <trkpt lat="59.9729354" lon="17.7480831">
        <ele>31.8607</ele>
        <time>2012-02-22T16:52:39Z</time>
      </trkpt>
      <trkpt lat="59.972905" lon="17.7481631">
        <ele>29.4575</ele>
        <time>2012-02-22T16:52:43Z</time>
      </trkpt>
      <trkpt lat="59.9728981" lon="17.7481812">
        <ele>29.4575</ele>
        <time>2012-02-22T16:52:44Z</time>
      </trkpt>
      <trkpt lat="59.9728047" lon="17.7483659">
        <ele>28.9769</ele>
        <time>2012-02-22T16:52:52Z</time>
      </trkpt>
      <trkpt lat="59.972768" lon="17.7484532">
        <ele>28.0155</ele>
        <time>2012-02-22T16:52:56Z</time>
      </trkpt>
      <trkpt lat="59.9727094" lon="17.7486081">
        <ele>28.4962</ele>
        <time>2012-02-22T16:53:02Z</time>
      </trkpt>
      <trkpt lat="59.9726173" lon="17.7487956">
        <ele>29.9381</ele>
        <time>2012-02-22T16:53:10Z</time>
      </trkpt>
      <trkpt lat="59.9725108" lon="17.7490397">
        <ele>34.7449</ele>
        <time>2012-02-22T16:53:18Z</time>
      </trkpt>
      <trkpt lat="59.9724568" lon="17.7491673">
        <ele>34.2642</ele>
        <time>2012-02-22T16:53:24Z</time>
      </trkpt>
      <trkpt lat="59.9724069" lon="17.7492564">
        <ele>32.8223</ele>
        <time>2012-02-22T16:53:29Z</time>
      </trkpt>
      <trkpt lat="59.9723274" lon="17.7494434">
        <ele>36.1868</ele>
        <time>2012-02-22T16:53:35Z</time>
      </trkpt>
      <trkpt lat="59.9722875" lon="17.7495566">
        <ele>36.1868</ele>
        <time>2012-02-22T16:53:39Z</time>
      </trkpt>
      <trkpt lat="59.9722756" lon="17.7496026">
        <ele>35.2255</ele>
        <time>2012-02-22T16:53:41Z</time>
      </trkpt>
      <trkpt lat="59.9722372" lon="17.7497223">
        <ele>33.3029</ele>
        <time>2012-02-22T16:53:47Z</time>
      </trkpt>
      <trkpt lat="59.9722194" lon="17.7497819">
        <ele>33.7834</ele>
        <time>2012-02-22T16:53:50Z</time>
      </trkpt>
      <trkpt lat="59.972186" lon="17.7498938">
        <ele>32.8223</ele>
        <time>2012-02-22T16:53:55Z</time>
      </trkpt>
      <trkpt lat="59.972132" lon="17.7500422">
        <ele>33.7834</ele>
        <time>2012-02-22T16:54:00Z</time>
      </trkpt>
      <trkpt lat="59.9720549" lon="17.7501989">
        <ele>35.2255</ele>
        <time>2012-02-22T16:54:06Z</time>
      </trkpt>
      <trkpt lat="59.97196" lon="17.7503692">
        <ele>33.7834</ele>
        <time>2012-02-22T16:54:13Z</time>
      </trkpt>
      <trkpt lat="59.9719155" lon="17.7504621">
        <ele>31.8607</ele>
        <time>2012-02-22T16:54:17Z</time>
      </trkpt>
      <trkpt lat="59.9719005" lon="17.7504853">
        <ele>32.3416</ele>
        <time>2012-02-22T16:54:18Z</time>
      </trkpt>
      <trkpt lat="59.9718358" lon="17.7505809">
        <ele>32.3416</ele>
        <time>2012-02-22T16:54:23Z</time>
      </trkpt>
      <trkpt lat="59.9717972" lon="17.7506776">
        <ele>31.8607</ele>
        <time>2012-02-22T16:54:26Z</time>
      </trkpt>
      <trkpt lat="59.9717408" lon="17.7507982">
        <ele>29.4575</ele>
        <time>2012-02-22T16:54:33Z</time>
      </trkpt>
      <trkpt lat="59.9717296" lon="17.7508255">
        <ele>28.4962</ele>
        <time>2012-02-22T16:54:35Z</time>
      </trkpt>
      <trkpt lat="59.9717127" lon="17.7509389">
        <ele>25.6123</ele>
        <time>2012-02-22T16:54:39Z</time>
      </trkpt>
      <trkpt lat="59.971673" lon="17.7509488">
        <ele>24.651</ele>
        <time>2012-02-22T16:54:42Z</time>
      </trkpt>
      <trkpt lat="59.9715865" lon="17.751105">
        <ele>17.9218</ele>
        <time>2012-02-22T16:54:49Z</time>
      </trkpt>
      <trkpt lat="59.9715404" lon="17.7511774">
        <ele>13.1151</ele>
        <time>2012-02-22T16:54:53Z</time>
      </trkpt>
      <trkpt lat="59.9714751" lon="17.7511925">
        <ele>14.557</ele>
        <time>2012-02-22T16:54:57Z</time>
      </trkpt>
      <trkpt lat="59.9713286" lon="17.7513292">
        <ele>16.4797</ele>
        <time>2012-02-22T16:55:08Z</time>
      </trkpt>
      <trkpt lat="59.9712022" lon="17.7514637">
        <ele>22.2476</ele>
        <time>2012-02-22T16:55:15Z</time>
      </trkpt>
      <trkpt lat="59.9711603" lon="17.7514934">
        <ele>23.209</ele>
        <time>2012-02-22T16:55:17Z</time>
      </trkpt>
      <trkpt lat="59.9710903" lon="17.7515216">
        <ele>26.5736</ele>
        <time>2012-02-22T16:55:21Z</time>
      </trkpt>
      <trkpt lat="59.9710555" lon="17.7515638">
        <ele>28.9769</ele>
        <time>2012-02-22T16:55:23Z</time>
      </trkpt>
      <trkpt lat="59.9709955" lon="17.7516162">
        <ele>33.7834</ele>
        <time>2012-02-22T16:55:26Z</time>
      </trkpt>
      <trkpt lat="59.9708913" lon="17.7517506">
        <ele>38.1094</ele>
        <time>2012-02-22T16:55:32Z</time>
      </trkpt>
      <trkpt lat="59.9708303" lon="17.7518724">
        <ele>40.5128</ele>
        <time>2012-02-22T16:55:37Z</time>
      </trkpt>
      <trkpt lat="59.9708068" lon="17.7519166">
        <ele>40.9934</ele>
        <time>2012-02-22T16:55:39Z</time>
      </trkpt>
      <trkpt lat="59.9707511" lon="17.7519904">
        <ele>40.9934</ele>
        <time>2012-02-22T16:55:42Z</time>
      </trkpt>
      <trkpt lat="59.9706965" lon="17.7520843">
        <ele>40.0321</ele>
        <time>2012-02-22T16:55:47Z</time>
      </trkpt>
      <trkpt lat="59.9706426" lon="17.7521932">
        <ele>34.7449</ele>
        <time>2012-02-22T16:55:54Z</time>
      </trkpt>
      <trkpt lat="59.9705919" lon="17.752307">
        <ele>33.3029</ele>
        <time>2012-02-22T16:55:59Z</time>
      </trkpt>
      <trkpt lat="59.9705247" lon="17.7524551">
        <ele>32.3416</ele>
        <time>2012-02-22T16:56:05Z</time>
      </trkpt>
      <trkpt lat="59.9704526" lon="17.7526916">
        <ele>32.3416</ele>
        <time>2012-02-22T16:56:13Z</time>
      </trkpt>
      <trkpt lat="59.9703993" lon="17.7528709">
        <ele>29.4575</ele>
        <time>2012-02-22T16:56:21Z</time>
      </trkpt>
      <trkpt lat="59.9703288" lon="17.753077">
        <ele>28.9769</ele>
        <time>2012-02-22T16:56:29Z</time>
      </trkpt>
      <trkpt lat="59.9702687" lon="17.7532713">
        <ele>28.9769</ele>
        <time>2012-02-22T16:56:37Z</time>
      </trkpt>
      <trkpt lat="59.970201" lon="17.7534639">
        <ele>30.4188</ele>
        <time>2012-02-22T16:56:45Z</time>
      </trkpt>
      <trkpt lat="59.9701449" lon="17.7535891">
        <ele>31.3801</ele>
        <time>2012-02-22T16:56:51Z</time>
      </trkpt>
      <trkpt lat="59.9700771" lon="17.7537491">
        <ele>33.3029</ele>
        <time>2012-02-22T16:56:57Z</time>
      </trkpt>
      <trkpt lat="59.9699902" lon="17.7539608">
        <ele>34.2642</ele>
        <time>2012-02-22T16:57:05Z</time>
      </trkpt>
      <trkpt lat="59.9698749" lon="17.7542072">
        <ele>34.7449</ele>
        <time>2012-02-22T16:57:15Z</time>
      </trkpt>
      <trkpt lat="59.9698624" lon="17.7542327">
        <ele>34.7449</ele>
        <time>2012-02-22T16:57:16Z</time>
      </trkpt>
      <trkpt lat="59.9697824" lon="17.7543999">
        <ele>35.2255</ele>
        <time>2012-02-22T16:57:22Z</time>
      </trkpt>
      <trkpt lat="59.9697149" lon="17.7545536">
        <ele>33.7834</ele>
        <time>2012-02-22T16:57:29Z</time>
      </trkpt>
      <trkpt lat="59.9696492" lon="17.7546921">
        <ele>31.3801</ele>
        <time>2012-02-22T16:57:37Z</time>
      </trkpt>
      <trkpt lat="59.9696347" lon="17.7546069">
        <ele>30.4188</ele>
        <time>2012-02-22T16:57:41Z</time>
      </trkpt>
      <trkpt lat="59.9696402" lon="17.7545807">
        <ele>30.4188</ele>
        <time>2012-02-22T16:57:42Z</time>
      </trkpt>
      <trkpt lat="59.9697241" lon="17.7543844">
        <ele>26.5736</ele>
        <time>2012-02-22T16:57:50Z</time>
      </trkpt>
      <trkpt lat="59.9697833" lon="17.7542254">
        <ele>25.6123</ele>
        <time>2012-02-22T16:57:57Z</time>
      </trkpt>
      <trkpt lat="59.9698201" lon="17.7541362">
        <ele>26.5736</ele>
        <time>2012-02-22T16:58:01Z</time>
      </trkpt>
      <trkpt lat="59.9698731" lon="17.7539928">
        <ele>26.5736</ele>
        <time>2012-02-22T16:58:07Z</time>
      </trkpt>
      <trkpt lat="59.9699543" lon="17.753831">
        <ele>28.0155</ele>
        <time>2012-02-22T16:58:14Z</time>
      </trkpt>
      <trkpt lat="59.9700351" lon="17.7536571">
        <ele>29.4575</ele>
        <time>2012-02-22T16:58:22Z</time>
      </trkpt>
      <trkpt lat="59.9700972" lon="17.7534994">
        <ele>30.8995</ele>
        <time>2012-02-22T16:58:28Z</time>
      </trkpt>
      <trkpt lat="59.9701543" lon="17.7533519">
        <ele>31.3801</ele>
        <time>2012-02-22T16:58:34Z</time>
      </trkpt>
      <trkpt lat="59.9702471" lon="17.7531182">
        <ele>29.4575</ele>
        <time>2012-02-22T16:58:43Z</time>
      </trkpt>
      <trkpt lat="59.9703248" lon="17.7528733">
        <ele>28.0155</ele>
        <time>2012-02-22T16:58:52Z</time>
      </trkpt>
      <trkpt lat="59.9703775" lon="17.7527117">
        <ele>29.4575</ele>
        <time>2012-02-22T16:58:59Z</time>
      </trkpt>
      <trkpt lat="59.9703945" lon="17.7526754">
        <ele>29.9381</ele>
        <time>2012-02-22T16:59:01Z</time>
      </trkpt>
      <trkpt lat="59.9704134" lon="17.7526215">
        <ele>28.9769</ele>
        <time>2012-02-22T16:59:04Z</time>
      </trkpt>
      <trkpt lat="59.9704438" lon="17.7527453">
        <ele>41.9547</ele>
        <time>2012-02-22T17:05:35Z</time>
      </trkpt>
      <trkpt lat="59.9704449" lon="17.7527257">
        <ele>41.474</ele>
        <time>2012-02-22T17:05:36Z</time>
      </trkpt>
      <trkpt lat="59.9704557" lon="17.7526656">
        <ele>39.5513</ele>
        <time>2012-02-22T17:05:38Z</time>
      </trkpt>
      <trkpt lat="59.9704811" lon="17.7525734">
        <ele>37.6287</ele>
        <time>2012-02-22T17:05:43Z</time>
      </trkpt>
      <trkpt lat="59.9704926" lon="17.7525245">
        <ele>35.2255</ele>
        <time>2012-02-22T17:05:47Z</time>
      </trkpt>
      <trkpt lat="59.970507" lon="17.7524611">
        <ele>33.3029</ele>
        <time>2012-02-22T17:05:50Z</time>
      </trkpt>
      <trkpt lat="59.9705996" lon="17.7522408">
        <ele>29.9381</ele>
        <time>2012-02-22T17:05:59Z</time>
      </trkpt>
      <trkpt lat="59.9706715" lon="17.752117">
        <ele>28.0155</ele>
        <time>2012-02-22T17:06:05Z</time>
      </trkpt>
      <trkpt lat="59.9707369" lon="17.7519783">
        <ele>27.0543</ele>
        <time>2012-02-22T17:06:12Z</time>
      </trkpt>
      <trkpt lat="59.9708125" lon="17.7518533">
        <ele>27.0543</ele>
        <time>2012-02-22T17:06:19Z</time>
      </trkpt>
      <trkpt lat="59.9708845" lon="17.7517258">
        <ele>28.0155</ele>
        <time>2012-02-22T17:06:26Z</time>
      </trkpt>
      <trkpt lat="59.9709499" lon="17.751633">
        <ele>28.4962</ele>
        <time>2012-02-22T17:06:32Z</time>
      </trkpt>
      <trkpt lat="59.9710259" lon="17.7515458">
        <ele>29.9381</ele>
        <time>2012-02-22T17:06:38Z</time>
      </trkpt>
      <trkpt lat="59.9711063" lon="17.7514474">
        <ele>32.3416</ele>
        <time>2012-02-22T17:06:44Z</time>
      </trkpt>
      <trkpt lat="59.9711907" lon="17.7513609">
        <ele>32.3416</ele>
        <time>2012-02-22T17:06:49Z</time>
      </trkpt>
      <trkpt lat="59.9712787" lon="17.7512639">
        <ele>31.3801</ele>
        <time>2012-02-22T17:06:55Z</time>
      </trkpt>
      <trkpt lat="59.9713482" lon="17.7511697">
        <ele>31.3801</ele>
        <time>2012-02-22T17:07:01Z</time>
      </trkpt>
      <trkpt lat="59.9714612" lon="17.7510189">
        <ele>31.8607</ele>
        <time>2012-02-22T17:07:10Z</time>
      </trkpt>
      <trkpt lat="59.971539" lon="17.7509112">
        <ele>32.3416</ele>
        <time>2012-02-22T17:07:16Z</time>
      </trkpt>
      <trkpt lat="59.9716554" lon="17.7507151">
        <ele>33.7834</ele>
        <time>2012-02-22T17:07:25Z</time>
      </trkpt>
      <trkpt lat="59.9717304" lon="17.7505758">
        <ele>33.7834</ele>
        <time>2012-02-22T17:07:31Z</time>
      </trkpt>
      <trkpt lat="59.971799" lon="17.7504496">
        <ele>36.1868</ele>
        <time>2012-02-22T17:07:37Z</time>
      </trkpt>
      <trkpt lat="59.971886" lon="17.7502407">
        <ele>35.2255</ele>
        <time>2012-02-22T17:07:45Z</time>
      </trkpt>
      <trkpt lat="59.9719529" lon="17.7501021">
        <ele>35.2255</ele>
        <time>2012-02-22T17:07:51Z</time>
      </trkpt>
      <trkpt lat="59.9719617" lon="17.7500648">
        <ele>35.7061</ele>
        <time>2012-02-22T17:07:52Z</time>
      </trkpt>
      <trkpt lat="59.9720341" lon="17.7498663">
        <ele>37.1481</ele>
        <time>2012-02-22T17:08:00Z</time>
      </trkpt>
      <trkpt lat="59.9721263" lon="17.7497069">
        <ele>39.0707</ele>
        <time>2012-02-22T17:08:07Z</time>
      </trkpt>
      <trkpt lat="59.9721416" lon="17.7496853">
        <ele>40.0321</ele>
        <time>2012-02-22T17:08:08Z</time>
      </trkpt>
      <trkpt lat="59.9722076" lon="17.7494876">
        <ele>42.4354</ele>
        <time>2012-02-22T17:08:16Z</time>
      </trkpt>
      <trkpt lat="59.9722475" lon="17.7493959">
        <ele>42.916</ele>
        <time>2012-02-22T17:08:20Z</time>
      </trkpt>
      <trkpt lat="59.972307" lon="17.7492758">
        <ele>40.5128</ele>
        <time>2012-02-22T17:08:27Z</time>
      </trkpt>
      <trkpt lat="59.9723832" lon="17.7491421">
        <ele>38.5901</ele>
        <time>2012-02-22T17:08:33Z</time>
      </trkpt>
      <trkpt lat="59.9724607" lon="17.7489572">
        <ele>38.5901</ele>
        <time>2012-02-22T17:08:40Z</time>
      </trkpt>
      <trkpt lat="59.9724485" lon="17.7489361">
        <ele>41.9547</ele>
        <time>2012-02-22T17:08:42Z</time>
      </trkpt>
      <trkpt lat="59.9724528" lon="17.7488982">
        <ele>43.3966</ele>
        <time>2012-02-22T17:08:44Z</time>
      </trkpt>
      <trkpt lat="59.9725039" lon="17.748838">
        <ele>43.3966</ele>
        <time>2012-02-22T17:08:48Z</time>
      </trkpt>
      <trkpt lat="59.9725563" lon="17.748765">
        <ele>43.3966</ele>
        <time>2012-02-22T17:08:53Z</time>
      </trkpt>
      <trkpt lat="59.9726209" lon="17.7486593">
        <ele>42.4354</ele>
        <time>2012-02-22T17:08:58Z</time>
      </trkpt>
      <trkpt lat="59.9726676" lon="17.7485298">
        <ele>40.0321</ele>
        <time>2012-02-22T17:09:04Z</time>
      </trkpt>
      <trkpt lat="59.9727506" lon="17.7483827">
        <ele>38.5901</ele>
        <time>2012-02-22T17:09:10Z</time>
      </trkpt>
      <trkpt lat="59.9728013" lon="17.7482514">
        <ele>36.6675</ele>
        <time>2012-02-22T17:09:16Z</time>
      </trkpt>
      <trkpt lat="59.9728816" lon="17.7481216">
        <ele>35.2255</ele>
        <time>2012-02-22T17:09:22Z</time>
      </trkpt>
      <trkpt lat="59.9729298" lon="17.7479837">
        <ele>35.2255</ele>
        <time>2012-02-22T17:09:29Z</time>
      </trkpt>
      <trkpt lat="59.9730126" lon="17.7478676">
        <ele>34.7449</ele>
        <time>2012-02-22T17:09:36Z</time>
      </trkpt>
      <trkpt lat="59.9730944" lon="17.747774">
        <ele>37.1481</ele>
        <time>2012-02-22T17:09:42Z</time>
      </trkpt>
      <trkpt lat="59.973194" lon="17.7476195">
        <ele>36.6675</ele>
        <time>2012-02-22T17:09:50Z</time>
      </trkpt>
      <trkpt lat="59.9732043" lon="17.7476065">
        <ele>36.6675</ele>
        <time>2012-02-22T17:09:51Z</time>
      </trkpt>
      <trkpt lat="59.9732669" lon="17.7475519">
        <ele>37.1481</ele>
        <time>2012-02-22T17:09:55Z</time>
      </trkpt>
      <trkpt lat="59.9733755" lon="17.7474423">
        <ele>35.7061</ele>
        <time>2012-02-22T17:10:03Z</time>
      </trkpt>
      <trkpt lat="59.9734453" lon="17.7474057">
        <ele>35.2255</ele>
        <time>2012-02-22T17:10:08Z</time>
      </trkpt>
      <trkpt lat="59.9735311" lon="17.7473458">
        <ele>33.7834</ele>
        <time>2012-02-22T17:10:15Z</time>
      </trkpt>
      <trkpt lat="59.9735703" lon="17.7473315">
        <ele>32.3416</ele>
        <time>2012-02-22T17:10:17Z</time>
      </trkpt>
      <trkpt lat="59.9736436" lon="17.7472427">
        <ele>30.8995</ele>
        <time>2012-02-22T17:10:23Z</time>
      </trkpt>
      <trkpt lat="59.9736897" lon="17.7472006">
        <ele>31.8607</ele>
        <time>2012-02-22T17:10:27Z</time>
      </trkpt>
      <trkpt lat="59.9737609" lon="17.7471038">
        <ele>34.2642</ele>
        <time>2012-02-22T17:10:33Z</time>
      </trkpt>
      <trkpt lat="59.9738283" lon="17.7469816">
        <ele>36.6675</ele>
        <time>2012-02-22T17:10:41Z</time>
      </trkpt>
      <trkpt lat="59.97384" lon="17.7469623">
        <ele>37.1481</ele>
        <time>2012-02-22T17:10:42Z</time>
      </trkpt>
      <trkpt lat="59.9738977" lon="17.7468883">
        <ele>37.1481</ele>
        <time>2012-02-22T17:10:46Z</time>
      </trkpt>
      <trkpt lat="59.9739429" lon="17.7468375">
        <ele>37.1481</ele>
        <time>2012-02-22T17:10:49Z</time>
      </trkpt>
      <trkpt lat="59.9740284" lon="17.7467173">
        <ele>37.1481</ele>
        <time>2012-02-22T17:10:56Z</time>
      </trkpt>
      <trkpt lat="59.9741207" lon="17.7466122">
        <ele>35.7061</ele>
        <time>2012-02-22T17:11:03Z</time>
      </trkpt>
      <trkpt lat="59.9741766" lon="17.7465584">
        <ele>35.7061</ele>
        <time>2012-02-22T17:11:07Z</time>
      </trkpt>
      <trkpt lat="59.9742733" lon="17.746432">
        <ele>35.2255</ele>
        <time>2012-02-22T17:11:15Z</time>
      </trkpt>
      <trkpt lat="59.9742978" lon="17.7464007">
        <ele>34.7449</ele>
        <time>2012-02-22T17:11:17Z</time>
      </trkpt>
      <trkpt lat="59.9743675" lon="17.7462859">
        <ele>32.8223</ele>
        <time>2012-02-22T17:11:24Z</time>
      </trkpt>
      <trkpt lat="59.9744315" lon="17.7462158">
        <ele>31.8607</ele>
        <time>2012-02-22T17:11:28Z</time>
      </trkpt>
      <trkpt lat="59.9745122" lon="17.7461082">
        <ele>32.3416</ele>
        <time>2012-02-22T17:11:34Z</time>
      </trkpt>
      <trkpt lat="59.9745288" lon="17.7460812">
        <ele>33.3029</ele>
        <time>2012-02-22T17:11:36Z</time>
      </trkpt>
      <trkpt lat="59.9745858" lon="17.7459554">
        <ele>37.1481</ele>
        <time>2012-02-22T17:11:43Z</time>
      </trkpt>
      <trkpt lat="59.9746298" lon="17.7458765">
        <ele>37.1481</ele>
        <time>2012-02-22T17:11:47Z</time>
      </trkpt>
      <trkpt lat="59.9746853" lon="17.7457516">
        <ele>37.6287</ele>
        <time>2012-02-22T17:11:53Z</time>
      </trkpt>
      <trkpt lat="59.9747743" lon="17.7456156">
        <ele>35.7061</ele>
        <time>2012-02-22T17:11:59Z</time>
      </trkpt>
      <trkpt lat="59.9747858" lon="17.7455977">
        <ele>35.2255</ele>
        <time>2012-02-22T17:12:00Z</time>
      </trkpt>
      <trkpt lat="59.9748555" lon="17.7454201">
        <ele>35.2255</ele>
        <time>2012-02-22T17:12:08Z</time>
      </trkpt>
      <trkpt lat="59.9748682" lon="17.7453938">
        <ele>35.2255</ele>
        <time>2012-02-22T17:12:09Z</time>
      </trkpt>
      <trkpt lat="59.9749423" lon="17.7452239">
        <ele>34.2642</ele>
        <time>2012-02-22T17:12:16Z</time>
      </trkpt>
      <trkpt lat="59.9749874" lon="17.7450617">
        <ele>35.7061</ele>
        <time>2012-02-22T17:12:23Z</time>
      </trkpt>
      <trkpt lat="59.9750151" lon="17.7449274">
        <ele>36.6675</ele>
        <time>2012-02-22T17:12:28Z</time>
      </trkpt>
      <trkpt lat="59.9750489" lon="17.7447999">
        <ele>37.6287</ele>
        <time>2012-02-22T17:12:33Z</time>
      </trkpt>
      <trkpt lat="59.9750715" lon="17.744673">
        <ele>38.5901</ele>
        <time>2012-02-22T17:12:38Z</time>
      </trkpt>
      <trkpt lat="59.9750987" lon="17.7445161">
        <ele>39.0707</ele>
        <time>2012-02-22T17:12:44Z</time>
      </trkpt>
      <trkpt lat="59.9751381" lon="17.7443639">
        <ele>40.0321</ele>
        <time>2012-02-22T17:12:50Z</time>
      </trkpt>
      <trkpt lat="59.9751736" lon="17.7442375">
        <ele>40.9934</ele>
        <time>2012-02-22T17:12:55Z</time>
      </trkpt>
      <trkpt lat="59.9752183" lon="17.7441272">
        <ele>40.0321</ele>
        <time>2012-02-22T17:12:59Z</time>
      </trkpt>
      <trkpt lat="59.9752528" lon="17.743968">
        <ele>40.5128</ele>
        <time>2012-02-22T17:13:05Z</time>
      </trkpt>
      <trkpt lat="59.975257" lon="17.7439396">
        <ele>40.5128</ele>
        <time>2012-02-22T17:13:06Z</time>
      </trkpt>
      <trkpt lat="59.9753063" lon="17.7436864">
        <ele>42.4354</ele>
        <time>2012-02-22T17:13:15Z</time>
      </trkpt>
      <trkpt lat="59.975349" lon="17.743457">
        <ele>40.9934</ele>
        <time>2012-02-22T17:13:23Z</time>
      </trkpt>
      <trkpt lat="59.975381" lon="17.7432653">
        <ele>40.9934</ele>
        <time>2012-02-22T17:13:30Z</time>
      </trkpt>
      <trkpt lat="59.9754272" lon="17.7430736">
        <ele>39.0707</ele>
        <time>2012-02-22T17:13:37Z</time>
      </trkpt>
      <trkpt lat="59.9754706" lon="17.7428979">
        <ele>39.5513</ele>
        <time>2012-02-22T17:13:44Z</time>
      </trkpt>
      <trkpt lat="59.9755234" lon="17.7426903">
        <ele>40.0321</ele>
        <time>2012-02-22T17:13:52Z</time>
      </trkpt>
      <trkpt lat="59.9755617" lon="17.7425029">
        <ele>40.5128</ele>
        <time>2012-02-22T17:14:00Z</time>
      </trkpt>
      <trkpt lat="59.9756301" lon="17.7422734">
        <ele>40.0321</ele>
        <time>2012-02-22T17:14:09Z</time>
      </trkpt>
      <trkpt lat="59.9756698" lon="17.742151">
        <ele>39.0707</ele>
        <time>2012-02-22T17:14:14Z</time>
      </trkpt>
      <trkpt lat="59.9757136" lon="17.741976">
        <ele>38.5901</ele>
        <time>2012-02-22T17:14:21Z</time>
      </trkpt>
      <trkpt lat="59.9757409" lon="17.7418289">
        <ele>37.1481</ele>
        <time>2012-02-22T17:14:27Z</time>
      </trkpt>
      <trkpt lat="59.975774" lon="17.7417188">
        <ele>37.1481</ele>
        <time>2012-02-22T17:14:32Z</time>
      </trkpt>
      <trkpt lat="59.9758024" lon="17.7415921">
        <ele>37.1481</ele>
        <time>2012-02-22T17:14:37Z</time>
      </trkpt>
      <trkpt lat="59.9758714" lon="17.7413915">
        <ele>35.7061</ele>
        <time>2012-02-22T17:14:45Z</time>
      </trkpt>
      <trkpt lat="59.9759052" lon="17.7412863">
        <ele>35.7061</ele>
        <time>2012-02-22T17:14:50Z</time>
      </trkpt>
      <trkpt lat="59.9759461" lon="17.7411781">
        <ele>36.1868</ele>
        <time>2012-02-22T17:14:54Z</time>
      </trkpt>
      <trkpt lat="59.9759839" lon="17.7410226">
        <ele>35.7061</ele>
        <time>2012-02-22T17:15:00Z</time>
      </trkpt>
      <trkpt lat="59.9760273" lon="17.7408446">
        <ele>34.7449</ele>
        <time>2012-02-22T17:15:06Z</time>
      </trkpt>
      <trkpt lat="59.9760555" lon="17.740756">
        <ele>34.7449</ele>
        <time>2012-02-22T17:15:11Z</time>
      </trkpt>
      <trkpt lat="59.9760917" lon="17.7406365">
        <ele>34.2642</ele>
        <time>2012-02-22T17:15:16Z</time>
      </trkpt>
      <trkpt lat="59.9761439" lon="17.740452">
        <ele>32.8223</ele>
        <time>2012-02-22T17:15:23Z</time>
      </trkpt>
      <trkpt lat="59.9761954" lon="17.7403038">
        <ele>31.8607</ele>
        <time>2012-02-22T17:15:29Z</time>
      </trkpt>
      <trkpt lat="59.9762035" lon="17.7402777">
        <ele>31.8607</ele>
        <time>2012-02-22T17:15:30Z</time>
      </trkpt>
      <trkpt lat="59.9762436" lon="17.7400899">
        <ele>32.3416</ele>
        <time>2012-02-22T17:15:37Z</time>
      </trkpt>
      <trkpt lat="59.9762486" lon="17.7400653">
        <ele>32.3416</ele>
        <time>2012-02-22T17:15:38Z</time>
      </trkpt>
      <trkpt lat="59.9762362" lon="17.739945">
        <ele>32.8223</ele>
        <time>2012-02-22T17:15:42Z</time>
      </trkpt>
      <trkpt lat="59.9761905" lon="17.7397812">
        <ele>32.8223</ele>
        <time>2012-02-22T17:15:48Z</time>
      </trkpt>
      <trkpt lat="59.9761808" lon="17.7397439">
        <ele>32.3416</ele>
        <time>2012-02-22T17:15:49Z</time>
      </trkpt>
      <trkpt lat="59.9761343" lon="17.7397226">
        <ele>30.4188</ele>
        <time>2012-02-22T17:15:54Z</time>
      </trkpt>
      <trkpt lat="59.9760388" lon="17.7395787">
        <ele>29.4575</ele>
        <time>2012-02-22T17:16:02Z</time>
      </trkpt>
      <trkpt lat="59.9759509" lon="17.7394422">
        <ele>29.4575</ele>
        <time>2012-02-22T17:16:09Z</time>
      </trkpt>
      <trkpt lat="59.9759275" lon="17.7394012">
        <ele>28.9769</ele>
        <time>2012-02-22T17:16:11Z</time>
      </trkpt>
      <trkpt lat="59.9758563" lon="17.7393285">
        <ele>29.4575</ele>
        <time>2012-02-22T17:16:17Z</time>
      </trkpt>
      <trkpt lat="59.9758092" lon="17.7392638">
        <ele>29.9381</ele>
        <time>2012-02-22T17:16:21Z</time>
      </trkpt>
      <trkpt lat="59.9757845" lon="17.7392449">
        <ele>30.4188</ele>
        <time>2012-02-22T17:16:23Z</time>
      </trkpt>
      <trkpt lat="59.9757602" lon="17.7392244">
        <ele>30.4188</ele>
        <time>2012-02-22T17:16:25Z</time>
      </trkpt>
      <trkpt lat="59.9757162" lon="17.7391526">
        <ele>29.9381</ele>
        <time>2012-02-22T17:16:29Z</time>
      </trkpt>
      <trkpt lat="59.975683" lon="17.7391081">
        <ele>29.9381</ele>
        <time>2012-02-22T17:16:32Z</time>
      </trkpt>
      <trkpt lat="59.9756327" lon="17.7390176">
        <ele>29.4575</ele>
        <time>2012-02-22T17:16:37Z</time>
      </trkpt>
      <trkpt lat="59.9755965" lon="17.7389305">
        <ele>28.9769</ele>
        <time>2012-02-22T17:16:41Z</time>
      </trkpt>
      <trkpt lat="59.97554" lon="17.7387618">
        <ele>28.9769</ele>
        <time>2012-02-22T17:16:48Z</time>
      </trkpt>
      <trkpt lat="59.9755209" lon="17.7387063">
        <ele>28.4962</ele>
        <time>2012-02-22T17:16:50Z</time>
      </trkpt>
      <trkpt lat="59.9754572" lon="17.7385623">
        <ele>28.0155</ele>
        <time>2012-02-22T17:16:56Z</time>
      </trkpt>
      <trkpt lat="59.9754206" lon="17.7384856">
        <ele>28.4962</ele>
        <time>2012-02-22T17:16:59Z</time>
      </trkpt>
      <trkpt lat="59.975353" lon="17.7384057">
        <ele>28.9769</ele>
        <time>2012-02-22T17:17:04Z</time>
      </trkpt>
      <trkpt lat="59.9752917" lon="17.7383567">
        <ele>28.0155</ele>
        <time>2012-02-22T17:17:09Z</time>
      </trkpt>
      <trkpt lat="59.9752169" lon="17.7382452">
        <ele>26.5736</ele>
        <time>2012-02-22T17:17:17Z</time>
      </trkpt>
      <trkpt lat="59.9752064" lon="17.7382327">
        <ele>26.0929</ele>
        <time>2012-02-22T17:17:18Z</time>
      </trkpt>
      <trkpt lat="59.9751551" lon="17.7381525">
        <ele>26.5736</ele>
        <time>2012-02-22T17:17:23Z</time>
      </trkpt>
      <trkpt lat="59.9751133" lon="17.7380413">
        <ele>25.6123</ele>
        <time>2012-02-22T17:17:28Z</time>
      </trkpt>
      <trkpt lat="59.9750925" lon="17.7379687">
        <ele>24.651</ele>
        <time>2012-02-22T17:17:31Z</time>
      </trkpt>
      <trkpt lat="59.974996" lon="17.7378341">
        <ele>28.4962</ele>
        <time>2012-02-22T17:17:39Z</time>
      </trkpt>
      <trkpt lat="59.9749501" lon="17.7377548">
        <ele>29.4575</ele>
        <time>2012-02-22T17:17:43Z</time>
      </trkpt>
      <trkpt lat="59.9748934" lon="17.7376801">
        <ele>31.3801</ele>
        <time>2012-02-22T17:17:47Z</time>
      </trkpt>
      <trkpt lat="59.9748553" lon="17.737616">
        <ele>32.8223</ele>
        <time>2012-02-22T17:17:51Z</time>
      </trkpt>
      <trkpt lat="59.974795" lon="17.7375636">
        <ele>34.7449</ele>
        <time>2012-02-22T17:17:54Z</time>
      </trkpt>
      <trkpt lat="59.9747294" lon="17.7374092">
        <ele>36.1868</ele>
        <time>2012-02-22T17:18:01Z</time>
      </trkpt>
      <trkpt lat="59.9746661" lon="17.73729">
        <ele>38.5901</ele>
        <time>2012-02-22T17:18:08Z</time>
      </trkpt>
      <trkpt lat="59.9746444" lon="17.7372429">
        <ele>39.5513</ele>
        <time>2012-02-22T17:18:10Z</time>
      </trkpt>
      <trkpt lat="59.9746061" lon="17.7370975">
        <ele>41.474</ele>
        <time>2012-02-22T17:18:16Z</time>
      </trkpt>
      <trkpt lat="59.9745799" lon="17.7370129">
        <ele>42.4354</ele>
        <time>2012-02-22T17:18:19Z</time>
      </trkpt>
      <trkpt lat="59.9744862" lon="17.7367908">
        <ele>46.2806</ele>
        <time>2012-02-22T17:18:28Z</time>
      </trkpt>
      <trkpt lat="59.9744314" lon="17.7366456">
        <ele>49.1646</ele>
        <time>2012-02-22T17:18:33Z</time>
      </trkpt>
      <trkpt lat="59.9743791" lon="17.7364788">
        <ele>52.5292</ele>
        <time>2012-02-22T17:18:38Z</time>
      </trkpt>
      <trkpt lat="59.9743412" lon="17.7363483">
        <ele>54.9324</ele>
        <time>2012-02-22T17:18:42Z</time>
      </trkpt>
      <trkpt lat="59.9743205" lon="17.7362156">
        <ele>56.3745</ele>
        <time>2012-02-22T17:18:47Z</time>
      </trkpt>
      <trkpt lat="59.974285" lon="17.7360814">
        <ele>58.2971</ele>
        <time>2012-02-22T17:18:52Z</time>
      </trkpt>
      <trkpt lat="59.9742727" lon="17.735952">
        <ele>58.7777</ele>
        <time>2012-02-22T17:18:56Z</time>
      </trkpt>
      <trkpt lat="59.9742748" lon="17.7358653">
        <ele>57.3358</ele>
        <time>2012-02-22T17:19:00Z</time>
      </trkpt>
      <trkpt lat="59.9742508" lon="17.7357382">
        <ele>56.3745</ele>
        <time>2012-02-22T17:19:05Z</time>
      </trkpt>
      <trkpt lat="59.9742402" lon="17.735638">
        <ele>54.9324</ele>
        <time>2012-02-22T17:19:09Z</time>
      </trkpt>
      <trkpt lat="59.9742383" lon="17.7355556">
        <ele>53.9712</ele>
        <time>2012-02-22T17:19:13Z</time>
      </trkpt>
      <trkpt lat="59.9742316" lon="17.7355007">
        <ele>53.0098</ele>
        <time>2012-02-22T17:19:15Z</time>
      </trkpt>
      <trkpt lat="59.9742263" lon="17.7353308">
        <ele>52.0486</ele>
        <time>2012-02-22T17:19:21Z</time>
      </trkpt>
      <trkpt lat="59.9742284" lon="17.7352205">
        <ele>51.0872</ele>
        <time>2012-02-22T17:19:25Z</time>
      </trkpt>
      <trkpt lat="59.9742227" lon="17.7351513">
        <ele>51.0872</ele>
        <time>2012-02-22T17:19:27Z</time>
      </trkpt>
      <trkpt lat="59.9742274" lon="17.734935">
        <ele>47.7225</ele>
        <time>2012-02-22T17:19:36Z</time>
      </trkpt>
      <trkpt lat="59.9742402" lon="17.7347497">
        <ele>44.358</ele>
        <time>2012-02-22T17:19:44Z</time>
      </trkpt>
      <trkpt lat="59.9742371" lon="17.7346419">
        <ele>41.9547</ele>
        <time>2012-02-22T17:19:48Z</time>
      </trkpt>
      <trkpt lat="59.9742423" lon="17.7345057">
        <ele>39.5513</ele>
        <time>2012-02-22T17:19:53Z</time>
      </trkpt>
      <trkpt lat="59.974247" lon="17.734484">
        <ele>38.5901</ele>
        <time>2012-02-22T17:19:54Z</time>
      </trkpt>
      <trkpt lat="59.9742575" lon="17.7343057">
        <ele>36.1868</ele>
        <time>2012-02-22T17:20:01Z</time>
      </trkpt>
      <trkpt lat="59.974262" lon="17.7341491">
        <ele>35.2255</ele>
        <time>2012-02-22T17:20:07Z</time>
      </trkpt>
      <trkpt lat="59.9742708" lon="17.7339805">
        <ele>34.7449</ele>
        <time>2012-02-22T17:20:13Z</time>
      </trkpt>
      <trkpt lat="59.9742869" lon="17.7338187">
        <ele>34.2642</ele>
        <time>2012-02-22T17:20:19Z</time>
      </trkpt>
      <trkpt lat="59.9742961" lon="17.7336863">
        <ele>33.3029</ele>
        <time>2012-02-22T17:20:24Z</time>
      </trkpt>
      <trkpt lat="59.974304" lon="17.7336376">
        <ele>32.8223</ele>
        <time>2012-02-22T17:20:26Z</time>
      </trkpt>
      <trkpt lat="59.9742972" lon="17.7335226">
        <ele>32.8223</ele>
        <time>2012-02-22T17:20:30Z</time>
      </trkpt>
      <trkpt lat="59.974273" lon="17.7333411">
        <ele>35.2255</ele>
        <time>2012-02-22T17:20:37Z</time>
      </trkpt>
      <trkpt lat="59.974273" lon="17.7332086">
        <ele>35.7061</ele>
        <time>2012-02-22T17:20:43Z</time>
      </trkpt>
      <trkpt lat="59.9742738" lon="17.7331849">
        <ele>35.7061</ele>
        <time>2012-02-22T17:20:44Z</time>
      </trkpt>
      <trkpt lat="59.9742932" lon="17.7329857">
        <ele>35.2255</ele>
        <time>2012-02-22T17:20:52Z</time>
      </trkpt>
      <trkpt lat="59.9742964" lon="17.7328028">
        <ele>35.2255</ele>
        <time>2012-02-22T17:20:59Z</time>
      </trkpt>
      <trkpt lat="59.9742953" lon="17.7326096">
        <ele>35.7061</ele>
        <time>2012-02-22T17:21:06Z</time>
      </trkpt>
      <trkpt lat="59.9743012" lon="17.7324083">
        <ele>35.7061</ele>
        <time>2012-02-22T17:21:13Z</time>
      </trkpt>
      <trkpt lat="59.9742955" lon="17.732256">
        <ele>35.7061</ele>
        <time>2012-02-22T17:21:19Z</time>
      </trkpt>
      <trkpt lat="59.9742988" lon="17.7322068">
        <ele>35.2255</ele>
        <time>2012-02-22T17:21:21Z</time>
      </trkpt>
      <trkpt lat="59.9742915" lon="17.7320375">
        <ele>34.7449</ele>
        <time>2012-02-22T17:21:28Z</time>
      </trkpt>
      <trkpt lat="59.9742932" lon="17.7318944">
        <ele>34.2642</ele>
        <time>2012-02-22T17:21:34Z</time>
      </trkpt>
      <trkpt lat="59.9742992" lon="17.7316214">
        <ele>33.3029</ele>
        <time>2012-02-22T17:21:44Z</time>
      </trkpt>
      <trkpt lat="59.974303" lon="17.7314059">
        <ele>31.3801</ele>
        <time>2012-02-22T17:21:52Z</time>
      </trkpt>
      <trkpt lat="59.9743206" lon="17.7312041">
        <ele>30.8995</ele>
        <time>2012-02-22T17:22:00Z</time>
      </trkpt>
      <trkpt lat="59.9743248" lon="17.7311774">
        <ele>30.8995</ele>
        <time>2012-02-22T17:22:01Z</time>
      </trkpt>
      <trkpt lat="59.9743279" lon="17.7310594">
        <ele>30.4188</ele>
        <time>2012-02-22T17:22:05Z</time>
      </trkpt>
      <trkpt lat="59.9743284" lon="17.7309404">
        <ele>31.3801</ele>
        <time>2012-02-22T17:22:09Z</time>
      </trkpt>
      <trkpt lat="59.9743429" lon="17.730728">
        <ele>32.3416</ele>
        <time>2012-02-22T17:22:16Z</time>
      </trkpt>
      <trkpt lat="59.9743801" lon="17.7307626">
        <ele>30.8995</ele>
        <time>2012-02-22T17:22:20Z</time>
      </trkpt>
      <trkpt lat="59.9743688" lon="17.7310773">
        <ele>29.4575</ele>
        <time>2012-02-22T17:22:28Z</time>
      </trkpt>
      <trkpt lat="59.9743553" lon="17.7312823">
        <ele>28.0155</ele>
        <time>2012-02-22T17:22:33Z</time>
      </trkpt>
      <trkpt lat="59.974344" lon="17.7315182">
        <ele>26.5736</ele>
        <time>2012-02-22T17:22:39Z</time>
      </trkpt>
      <trkpt lat="59.974324" lon="17.7317829">
        <ele>22.7283</ele>
        <time>2012-02-22T17:22:47Z</time>
      </trkpt>
      <trkpt lat="59.9743223" lon="17.7318783">
        <ele>21.2864</ele>
        <time>2012-02-22T17:22:50Z</time>
      </trkpt>
      <trkpt lat="59.9743148" lon="17.732138">
        <ele>18.8831</ele>
        <time>2012-02-22T17:23:00Z</time>
      </trkpt>
      <trkpt lat="59.9743207" lon="17.7322156">
        <ele>19.3638</ele>
        <time>2012-02-22T17:23:04Z</time>
      </trkpt>
      <trkpt lat="59.9743251" lon="17.7322675">
        <ele>20.325</ele>
        <time>2012-02-22T17:23:10Z</time>
      </trkpt>
      <trkpt lat="59.9743104" lon="17.7325223">
        <ele>19.8444</ele>
        <time>2012-02-22T17:23:18Z</time>
      </trkpt>
      <trkpt lat="59.9743142" lon="17.7327269">
        <ele>19.3638</ele>
        <time>2012-02-22T17:23:24Z</time>
      </trkpt>
      <trkpt lat="59.9743137" lon="17.7329158">
        <ele>19.3638</ele>
        <time>2012-02-22T17:23:29Z</time>
      </trkpt>
      <trkpt lat="59.974303" lon="17.7331799">
        <ele>17.9218</ele>
        <time>2012-02-22T17:23:37Z</time>
      </trkpt>
      <trkpt lat="59.9743025" lon="17.73332">
        <ele>18.4023</ele>
        <time>2012-02-22T17:23:42Z</time>
      </trkpt>
      <trkpt lat="59.9742895" lon="17.7334081">
        <ele>18.4023</ele>
        <time>2012-02-22T17:23:45Z</time>
      </trkpt>
      <trkpt lat="59.9742889" lon="17.7334324">
        <ele>18.4023</ele>
        <time>2012-02-22T17:23:46Z</time>
      </trkpt>
      <trkpt lat="59.9742759" lon="17.733578">
        <ele>16.9604</ele>
        <time>2012-02-22T17:23:53Z</time>
      </trkpt>
      <trkpt lat="59.9742496" lon="17.7337734">
        <ele>17.4412</ele>
        <time>2012-02-22T17:24:00Z</time>
      </trkpt>
      <trkpt lat="59.9742443" lon="17.7339722">
        <ele>17.4412</ele>
        <time>2012-02-22T17:24:06Z</time>
      </trkpt>
      <trkpt lat="59.9742448" lon="17.7342745">
        <ele>18.4023</ele>
        <time>2012-02-22T17:24:15Z</time>
      </trkpt>
      <trkpt lat="59.974259" lon="17.7345679">
        <ele>20.325</ele>
        <time>2012-02-22T17:24:24Z</time>
      </trkpt>
      <trkpt lat="59.9742869" lon="17.7348906">
        <ele>21.767</ele>
        <time>2012-02-22T17:24:34Z</time>
      </trkpt>
      <trkpt lat="59.9743148" lon="17.7351839">
        <ele>22.7283</ele>
        <time>2012-02-22T17:24:43Z</time>
      </trkpt>
      <trkpt lat="59.9743671" lon="17.7355626">
        <ele>23.6896</ele>
        <time>2012-02-22T17:24:55Z</time>
      </trkpt>
      <trkpt lat="59.9744118" lon="17.7358312">
        <ele>24.651</ele>
        <time>2012-02-22T17:25:04Z</time>
      </trkpt>
      <trkpt lat="59.9744631" lon="17.7360361">
        <ele>26.5736</ele>
        <time>2012-02-22T17:25:11Z</time>
      </trkpt>
      <trkpt lat="59.9745459" lon="17.7363473">
        <ele>28.0155</ele>
        <time>2012-02-22T17:25:22Z</time>
      </trkpt>
      <trkpt lat="59.9746185" lon="17.7365716">
        <ele>28.9769</ele>
        <time>2012-02-22T17:25:30Z</time>
      </trkpt>
      <trkpt lat="59.9747113" lon="17.7368289">
        <ele>30.4188</ele>
        <time>2012-02-22T17:25:40Z</time>
      </trkpt>
      <trkpt lat="59.9747878" lon="17.73699">
        <ele>31.3801</ele>
        <time>2012-02-22T17:25:48Z</time>
      </trkpt>
      <trkpt lat="59.9748541" lon="17.7371335">
        <ele>31.8607</ele>
        <time>2012-02-22T17:25:57Z</time>
      </trkpt>
      <trkpt lat="59.974927" lon="17.7373306">
        <ele>32.8223</ele>
        <time>2012-02-22T17:26:05Z</time>
      </trkpt>
      <trkpt lat="59.9750281" lon="17.7375782">
        <ele>30.8995</ele>
        <time>2012-02-22T17:26:15Z</time>
      </trkpt>
      <trkpt lat="59.9750613" lon="17.7376588">
        <ele>28.4962</ele>
        <time>2012-02-22T17:26:19Z</time>
      </trkpt>
      <trkpt lat="59.9750995" lon="17.7377493">
        <ele>25.6123</ele>
        <time>2012-02-22T17:26:24Z</time>
      </trkpt>
      <trkpt lat="59.9751246" lon="17.7377578">
        <ele>24.651</ele>
        <time>2012-02-22T17:26:26Z</time>
      </trkpt>
      <trkpt lat="59.9752065" lon="17.7378567">
        <ele>23.6896</ele>
        <time>2012-02-22T17:26:34Z</time>
      </trkpt>
      <trkpt lat="59.9752256" lon="17.7378863">
        <ele>23.6896</ele>
        <time>2012-02-22T17:26:36Z</time>
      </trkpt>
      <trkpt lat="59.9752448" lon="17.7379157">
        <ele>24.651</ele>
        <time>2012-02-22T17:26:38Z</time>
      </trkpt>
      <trkpt lat="59.9753177" lon="17.738052">
        <ele>27.0543</ele>
        <time>2012-02-22T17:26:45Z</time>
      </trkpt>
      <trkpt lat="59.9754031" lon="17.7381121">
        <ele>27.5349</ele>
        <time>2012-02-22T17:26:51Z</time>
      </trkpt>
      <trkpt lat="59.9754518" lon="17.7381643">
        <ele>27.5349</ele>
        <time>2012-02-22T17:26:56Z</time>
      </trkpt>
      <trkpt lat="59.9754955" lon="17.7382282">
        <ele>28.0155</ele>
        <time>2012-02-22T17:27:01Z</time>
      </trkpt>
      <trkpt lat="59.9755115" lon="17.7382422">
        <ele>28.0155</ele>
        <time>2012-02-22T17:27:03Z</time>
      </trkpt>
      <trkpt lat="59.9755548" lon="17.7383835">
        <ele>27.5349</ele>
        <time>2012-02-22T17:27:10Z</time>
      </trkpt>
      <trkpt lat="59.9756206" lon="17.7385163">
        <ele>27.5349</ele>
        <time>2012-02-22T17:27:17Z</time>
      </trkpt>
      <trkpt lat="59.975702" lon="17.7386652">
        <ele>28.0155</ele>
        <time>2012-02-22T17:27:25Z</time>
      </trkpt>
      <trkpt lat="59.9757699" lon="17.7387689">
        <ele>28.0155</ele>
        <time>2012-02-22T17:27:31Z</time>
      </trkpt>
      <trkpt lat="59.975829" lon="17.7388456">
        <ele>26.5736</ele>
        <time>2012-02-22T17:27:36Z</time>
      </trkpt>
      <trkpt lat="59.9758837" lon="17.7389663">
        <ele>25.6123</ele>
        <time>2012-02-22T17:27:42Z</time>
      </trkpt>
      <trkpt lat="59.9759539" lon="17.7390491">
        <ele>25.1317</ele>
        <time>2012-02-22T17:27:48Z</time>
      </trkpt>
      <trkpt lat="59.9760129" lon="17.7391469">
        <ele>25.1317</ele>
        <time>2012-02-22T17:27:54Z</time>
      </trkpt>
      <trkpt lat="59.9760716" lon="17.7392405">
        <ele>24.651</ele>
        <time>2012-02-22T17:27:59Z</time>
      </trkpt>
      <trkpt lat="59.9761046" lon="17.7392807">
        <ele>24.651</ele>
        <time>2012-02-22T17:28:01Z</time>
      </trkpt>
      <trkpt lat="59.9761865" lon="17.7394331">
        <ele>25.1317</ele>
        <time>2012-02-22T17:28:06Z</time>
      </trkpt>
      <trkpt lat="59.9762572" lon="17.7395315">
        <ele>25.6123</ele>
        <time>2012-02-22T17:28:11Z</time>
      </trkpt>
      <trkpt lat="59.9762895" lon="17.7396039">
        <ele>24.651</ele>
        <time>2012-02-22T17:28:14Z</time>
      </trkpt>
      <trkpt lat="59.9763404" lon="17.7396776">
        <ele>26.0929</ele>
        <time>2012-02-22T17:28:20Z</time>
      </trkpt>
      <trkpt lat="59.976358" lon="17.7396685">
        <ele>26.0929</ele>
        <time>2012-02-22T17:28:22Z</time>
      </trkpt>
      <trkpt lat="59.9763945" lon="17.7396464">
        <ele>26.5736</ele>
        <time>2012-02-22T17:28:25Z</time>
      </trkpt>
      <trkpt lat="59.9764439" lon="17.7395696">
        <ele>27.0543</ele>
        <time>2012-02-22T17:28:30Z</time>
      </trkpt>
      <trkpt lat="59.9764868" lon="17.739517">
        <ele>27.0543</ele>
        <time>2012-02-22T17:28:35Z</time>
      </trkpt>
      <trkpt lat="59.97651" lon="17.7394924">
        <ele>27.5349</ele>
        <time>2012-02-22T17:28:37Z</time>
      </trkpt>
      <trkpt lat="59.9765903" lon="17.7394054">
        <ele>28.0155</ele>
        <time>2012-02-22T17:28:44Z</time>
      </trkpt>
      <trkpt lat="59.9766895" lon="17.7393355">
        <ele>28.4962</ele>
        <time>2012-02-22T17:28:51Z</time>
      </trkpt>
      <trkpt lat="59.9767428" lon="17.7393156">
        <ele>28.4962</ele>
        <time>2012-02-22T17:28:55Z</time>
      </trkpt>
      <trkpt lat="59.9768552" lon="17.7392656">
        <ele>31.3801</ele>
        <time>2012-02-22T17:29:02Z</time>
      </trkpt>
      <trkpt lat="59.9769578" lon="17.7392181">
        <ele>33.3029</ele>
        <time>2012-02-22T17:29:09Z</time>
      </trkpt>
      <trkpt lat="59.9769727" lon="17.739221">
        <ele>33.3029</ele>
        <time>2012-02-22T17:29:10Z</time>
      </trkpt>
      <trkpt lat="59.9770587" lon="17.739186">
        <ele>32.8223</ele>
        <time>2012-02-22T17:29:15Z</time>
      </trkpt>
      <trkpt lat="59.977169" lon="17.7391513">
        <ele>32.3416</ele>
        <time>2012-02-22T17:29:22Z</time>
      </trkpt>
      <trkpt lat="59.9773098" lon="17.7390792">
        <ele>32.8223</ele>
        <time>2012-02-22T17:29:31Z</time>
      </trkpt>
      <trkpt lat="59.9774127" lon="17.7390327">
        <ele>32.8223</ele>
        <time>2012-02-22T17:29:38Z</time>
      </trkpt>
      <trkpt lat="59.9775282" lon="17.7390205">
        <ele>36.1868</ele>
        <time>2012-02-22T17:29:45Z</time>
      </trkpt>
      <trkpt lat="59.9776281" lon="17.7389866">
        <ele>38.1094</ele>
        <time>2012-02-22T17:29:51Z</time>
      </trkpt>
      <trkpt lat="59.9776815" lon="17.7389827">
        <ele>39.0707</ele>
        <time>2012-02-22T17:29:54Z</time>
      </trkpt>
      <trkpt lat="59.9777672" lon="17.7389796">
        <ele>40.0321</ele>
        <time>2012-02-22T17:30:00Z</time>
      </trkpt>
      <trkpt lat="59.9778866" lon="17.7389825">
        <ele>41.474</ele>
        <time>2012-02-22T17:30:07Z</time>
      </trkpt>
      <trkpt lat="59.9779973" lon="17.7389927">
        <ele>40.0321</ele>
        <time>2012-02-22T17:30:14Z</time>
      </trkpt>
      <trkpt lat="59.9780366" lon="17.7389721">
        <ele>38.5901</ele>
        <time>2012-02-22T17:30:17Z</time>
      </trkpt>
      <trkpt lat="59.9780773" lon="17.7390009">
        <ele>37.6287</ele>
        <time>2012-02-22T17:30:21Z</time>
      </trkpt>
      <trkpt lat="59.9781699" lon="17.7390317">
        <ele>36.6675</ele>
        <time>2012-02-22T17:30:28Z</time>
      </trkpt>
      <trkpt lat="59.9782659" lon="17.7390959">
        <ele>37.1481</ele>
        <time>2012-02-22T17:30:36Z</time>
      </trkpt>
      <trkpt lat="59.9783771" lon="17.7390979">
        <ele>38.5901</ele>
        <time>2012-02-22T17:30:45Z</time>
      </trkpt>
      <trkpt lat="59.9784031" lon="17.7390927">
        <ele>39.0707</ele>
        <time>2012-02-22T17:30:47Z</time>
      </trkpt>
      <trkpt lat="59.9784915" lon="17.7391005">
        <ele>38.1094</ele>
        <time>2012-02-22T17:30:54Z</time>
      </trkpt>
      <trkpt lat="59.9785273" lon="17.7391099">
        <ele>37.6287</ele>
        <time>2012-02-22T17:30:57Z</time>
      </trkpt>
      <trkpt lat="59.9785507" lon="17.7391174">
        <ele>37.1481</ele>
        <time>2012-02-22T17:30:59Z</time>
      </trkpt>
      <trkpt lat="59.9786299" lon="17.7391699">
        <ele>37.6287</ele>
        <time>2012-02-22T17:31:05Z</time>
      </trkpt>
      <trkpt lat="59.9787278" lon="17.7391555">
        <ele>37.6287</ele>
        <time>2012-02-22T17:31:11Z</time>
      </trkpt>
      <trkpt lat="59.9787492" lon="17.739175">
        <ele>37.6287</ele>
        <time>2012-02-22T17:31:13Z</time>
      </trkpt>
      <trkpt lat="59.9788268" lon="17.7391854">
        <ele>36.6675</ele>
        <time>2012-02-22T17:31:20Z</time>
      </trkpt>
      <trkpt lat="59.9788691" lon="17.739262">
        <ele>35.7061</ele>
        <time>2012-02-22T17:31:24Z</time>
      </trkpt>
      <trkpt lat="59.9789138" lon="17.7393253">
        <ele>33.7834</ele>
        <time>2012-02-22T17:31:30Z</time>
      </trkpt>
      <trkpt lat="59.9789745" lon="17.7395366">
        <ele>34.7449</ele>
        <time>2012-02-22T17:31:38Z</time>
      </trkpt>
      <trkpt lat="59.9789832" lon="17.7396138">
        <ele>35.7061</ele>
        <time>2012-02-22T17:31:41Z</time>
      </trkpt>
    </trkseg>
  </trk>
</gpx>